Capitol Logistics 2410

Operating for GTI



KORD
Chicago O'Hare International Airport
Chicago, Illinois
EHAM
Schiphol International Airport
Amsterdam,

Activity Log

Date Flight Route Aircraft Duration
No Flights Yet

Route Details

Aircraft Information
Primary: Boeing 767-300BDSF
Backup: Not Available
Route Data
Distance: 3574nm
Duration: 7h 50m
Recm'd Route: EBAKE WISMO POSTS PADDE SVM DERLO Q804 POLTY BAREE N561A NEEKO 5400N/05000W 5500N/04000W 5600N/03000W 5600N/02000W PIKIL SOVED KUGUR REMSI L603 LAMSO LAMSO2A
Origin Wx: KORD 191251Z 20014G22KT 10SM SCT055 SCT150 BKN250 23/18 A2977 RMK AO2 SLP075 T02330183 $
Dest. Wx: EHAM 191255Z 28009KT 240V310 9999 FEW014 BKN016 18/14 Q1015 NOSIG
Notes: 1X PER WEEK